Darstellungsparameter: Aktuell verwendete Einstellungen:
Skalierung der Graphiken ... ?
xyx+y,   Skalierungsfaktor:      Skalierung: Modus: x, Faktor: 1
Darstellungszeitraum ... ?
Vom - - bis: - -   Zeitraum: 27.08.2007 - 29.08.2007
Min/Max/Avg-Anzeige ... ?
Zeige MMA aktuell
Zeige MMA Monat
Zeige MMA alles
Zeige --A aktuell
Zeige --A Monat
Zeige --A alles
Keine MMA-Anzeige
MMA:
Average (ber die Originaldaten)
MMA-Basis: 27.08.2007 - 29.08.2007
Quicknavigation für Darstellung... ?
Tage:      1T, 2T, 3T, 5T -1T -2T -3T -5T +1T +2T +3T +5T
Wochen: 1W, 2W, 3W -1W -2W -3W +1W +2W +3W
Monate: 1M, 3M, 6M -1M -3M -6M +1M +3M +6M
Jahre:    1J, 3J, 5J, 10J -1J -3J -5J -10J +1J +3J +5J +10J
Nutze für die Darstellung ... ?
Originaldaten oder Mittelwerte auf ...
Stundenbasis Tagesbasis Wochenbasis
Monatsbasis Jahresbasis      Datenbasis: Original-Daten
Darstellen als:
Statistik (Auto) Statistik J:M      Darstellung:
Zur Graphik,    zurück zur Übersicht aller Sensoren.
 
Tabellarische Datenbersicht: ?
 
Sensor: Nr:Datum:Temp:Abs-Feuchte:Windchill:Wind:
Aussen-T/F 1 27-08-2007 00:03:02 20.3 C 11.78 g/m*3 20.3 C 0 km/h
2 27-08-2007 00:15:03 20.1 C 11.99 g/m*3 20.1 C 0 km/h
3 27-08-2007 00:27:03 20 C 12.1 g/m*3 20 C 0 km/h
4 27-08-2007 00:39:02 20 C 11.75 g/m*3 20 C 0 km/h
5 27-08-2007 00:51:02 20.1 C 11.65 g/m*3 20.1 C 0 km/h
6 27-08-2007 01:03:02 20.1 C 11.47 g/m*3 20.1 C 0 km/h
7 27-08-2007 01:15:02 19.8 C 11.61 g/m*3 19.8 C 0 km/h
8 27-08-2007 01:27:02 19.6 C 11.48 g/m*3 19.6 C 0 km/h
9 27-08-2007 01:39:02 19.7 C 11.55 g/m*3 19.7 C 0 km/h
10 27-08-2007 01:51:02 19.3 C 11.28 g/m*3 19.3 C 0 km/h
11 27-08-2007 02:03:02 19.2 C 11.38 g/m*3 19.2 C 0 km/h
12 27-08-2007 02:15:01 19.1 C 11.15 g/m*3 19.1 C 0 km/h
13 27-08-2007 02:27:01 18.9 C 11.34 g/m*3 18.9 C 0 km/h
14 27-08-2007 02:39:02 18.8 C 11.43 g/m*3 18.8 C 0 km/h
15 27-08-2007 02:52:03 18.8 C 11.27 g/m*3 18.8 C 0 km/h
16 27-08-2007 03:04:03 18.8 C 11.27 g/m*3 18.8 C 0 km/h
17 27-08-2007 03:16:03 18.9 C 11.18 g/m*3 18.9 C 0 km/h
18 27-08-2007 03:28:03 18.6 C 10.82 g/m*3 18.6 C 0 km/h
19 27-08-2007 03:40:02 18.5 C 10.92 g/m*3 18.5 C 0 km/h
20 27-08-2007 03:52:02 18.3 C 10.79 g/m*3 18.3 C 0 km/h
21 27-08-2007 04:04:02 18.2 C 10.72 g/m*3 18.2 C 0 km/h
22 27-08-2007 04:16:02 18.2 C 10.72 g/m*3 18.2 C 0 km/h
23 27-08-2007 04:28:02 18.3 C 10.48 g/m*3 18.3 C 0 km/h
24 27-08-2007 04:40:03 18.3 C 10.48 g/m*3 18.3 C 0 km/h
25 27-08-2007 04:52:02 18.2 C 10.1 g/m*3 18.2 C 0 km/h
Sensor: Nr:Datum:Temp:Abs-Feuchte:Windchill:Wind:
Aussen-T/F 26 27-08-2007 05:04:02 18.1 C 10.04 g/m*3 18.1 C 0 km/h
27 27-08-2007 05:16:02 18 C 9.98 g/m*3 18 C 0 km/h
28 27-08-2007 05:28:02 17.8 C 10.17 g/m*3 17.8 C 0 km/h
29 27-08-2007 05:40:02 17.6 C 10.05 g/m*3 17.6 C 0 km/h
30 27-08-2007 05:52:02 17.2 C 9.96 g/m*3 17.2 C 0 km/h
31 27-08-2007 06:04:02 16.9 C 10.21 g/m*3 16.9 C 0 km/h
32 27-08-2007 06:16:02 16.6 C 10.17 g/m*3 16.6 C 0 km/h
33 27-08-2007 06:28:02 16.3 C 10.13 g/m*3 16.3 C 0 km/h
34 27-08-2007 06:40:02 16.4 C 10.33 g/m*3 16.4 C 0 km/h
35 27-08-2007 06:52:02 16.4 C 10.33 g/m*3 16.4 C 0 km/h
36 27-08-2007 07:04:02 16.5 C 10.25 g/m*3 16.5 C 0 km/h
37 27-08-2007 07:16:02 16.5 C 10.25 g/m*3 16.5 C 0 km/h
38 27-08-2007 07:28:03 16.4 C 10.19 g/m*3 16.4 C 0 km/h
39 27-08-2007 07:40:02 16.4 C 10.19 g/m*3 16.4 C 0 km/h
40 27-08-2007 07:52:02 16.6 C 10.31 g/m*3 16.6 C 0 km/h
41 27-08-2007 08:04:03 16.7 C 10.23 g/m*3 16.7 C 0 km/h
42 27-08-2007 08:16:02 16.6 C 10.03 g/m*3 16.6 C 0 km/h
43 27-08-2007 08:28:02 16.5 C 9.97 g/m*3 16.5 C 0 km/h
44 27-08-2007 08:40:02 16.9 C 10.21 g/m*3 16.9 C 0 km/h
45 27-08-2007 08:52:02 17 C 9.84 g/m*3 17 C 0 km/h
46 27-08-2007 09:04:03 17.2 C 9.96 g/m*3 17.2 C 0 km/h
47 27-08-2007 09:16:03 17.6 C 9.75 g/m*3 17.6 C 0 km/h
48 27-08-2007 09:28:03 18.1 C 10.04 g/m*3 18.1 C 0 km/h
49 27-08-2007 09:40:02 18.3 C 10.01 g/m*3 18.3 C 0 km/h
50 27-08-2007 09:52:02 17.6 C 9.75 g/m*3 17.6 C 0 km/h
Sensor: Nr:Datum:Temp:Abs-Feuchte:Windchill:Wind:
Aussen-T/F 51 27-08-2007 10:04:02 17.9 C 9.92 g/m*3 17.9 C 0 km/h
52 27-08-2007 10:16:01 17.7 C 9.51 g/m*3 17.7 C 0 km/h
53 27-08-2007 10:28:01 18.3 C 9.07 g/m*3 18.3 C 0 km/h
54 27-08-2007 10:40:02 18.7 C 8.81 g/m*3 18.7 C 0 km/h
55 27-08-2007 10:52:01 20.1 C 8.87 g/m*3 20.1 C 0 km/h
56 27-08-2007 11:04:02 19.7 C 8.32 g/m*3 19.7 C 0 km/h
57 27-08-2007 11:16:01 20.2 C 8.39 g/m*3 20.2 C 0 km/h
58 27-08-2007 11:28:01 20.9 C 8.2 g/m*3 20.9 C 0 km/h
59 27-08-2007 11:40:02 20.9 C 8.56 g/m*3 20.9 C 0 km/h
60 27-08-2007 11:52:02 20.5 C 8.19 g/m*3 20.5 C 0 km/h
61 27-08-2007 12:04:03 20.8 C 8.33 g/m*3 20.8 C 0 km/h
62 27-08-2007 12:16:02 20.3 C 7.56 g/m*3 20.3 C 0 km/h
63 27-08-2007 12:28:02 21.4 C 7.69 g/m*3 21.4 C 0 km/h
64 27-08-2007 12:40:02 21.5 C 6.98 g/m*3 21.5 C 0 km/h
65 27-08-2007 12:52:02 21.9 C 6.95 g/m*3 21.9 C 0 km/h
66 27-08-2007 13:04:01 22.4 C 7.35 g/m*3 22.4 C 0 km/h
67 27-08-2007 13:16:01 22 C 7.57 g/m*3 22 C 0 km/h
68 27-08-2007 13:28:01 22.6 C 8.04 g/m*3 22.6 C 0 km/h
69 27-08-2007 13:40:02 22.6 C 7.43 g/m*3 22.6 C 0 km/h
70 27-08-2007 13:52:02 23.1 C 7.23 g/m*3 23.1 C 0 km/h
71 27-08-2007 14:04:02 23.7 C 6.63 g/m*3 23.7 C 0 km/h
72 27-08-2007 14:16:02 23.8 C 6.88 g/m*3 23.8 C 0 km/h
73 27-08-2007 14:28:02 24.5 C 6.49 g/m*3 24.5 C 0 km/h
74 27-08-2007 14:40:02 23.6 C 6.59 g/m*3 23.6 C 0 km/h
75 27-08-2007 14:52:02 24.5 C 6.71 g/m*3 24.5 C 0 km/h
Sensor: Nr:Datum:Temp:Abs-Feuchte:Windchill:Wind:
Aussen-T/F 76 27-08-2007 15:04:01 24.5 C 6.71 g/m*3 24.5 C 0 km/h
77 27-08-2007 15:16:01 24.8 C 6.6 g/m*3 24.8 C 0 km/h
78 27-08-2007 15:28:01 24.4 C 6.68 g/m*3 24.4 C 0 km/h
79 27-08-2007 15:40:02 23.8 C 6.67 g/m*3 23.8 C 0 km/h
80 27-08-2007 15:52:03 24.5 C 6.27 g/m*3 24.5 C 0 km/h
81 27-08-2007 16:04:02 23.5 C 6.13 g/m*3 23.5 C 0 km/h
82 27-08-2007 16:16:02 23.2 C 6.24 g/m*3 23.2 C 0 km/h
83 27-08-2007 16:28:02 23.1 C 6.41 g/m*3 23.1 C 0 km/h
84 27-08-2007 16:40:02 23.2 C 6.44 g/m*3 23.2 C 0 km/h
85 27-08-2007 16:52:02 24.1 C 6.56 g/m*3 24.1 C 0 km/h
86 27-08-2007 17:04:02 23.4 C 6.52 g/m*3 23.4 C 0 km/h
87 27-08-2007 17:16:01 23.4 C 6.52 g/m*3 23.4 C 0 km/h
88 27-08-2007 17:28:01 22.8 C 6.3 g/m*3 22.8 C 0 km/h
89 27-08-2007 17:40:02 22 C 6.4 g/m*3 22 C 0 km/h
90 27-08-2007 17:52:01 21.6 C 6.64 g/m*3 21.6 C 0 km/h
91 27-08-2007 18:04:02 21.3 C 6.52 g/m*3 21.3 C 0 km/h
92 27-08-2007 18:16:02 20.8 C 6.34 g/m*3 20.8 C 0 km/h
93 27-08-2007 18:28:03 20.5 C 6.41 g/m*3 20.5 C 0 km/h
94 27-08-2007 18:40:01 20.5 C 6.58 g/m*3 20.5 C 0 km/h
95 27-08-2007 18:52:01 21 C 6.41 g/m*3 21 C 0 km/h
96 27-08-2007 19:04:02 20.2 C 6.47 g/m*3 20.2 C 0 km/h
97 27-08-2007 19:16:02 20.8 C 6.52 g/m*3 20.8 C 0 km/h
98 27-08-2007 19:28:03 20.7 C 6.48 g/m*3 20.7 C 0 km/h
99 27-08-2007 19:40:02 20.1 C 6.26 g/m*3 20.1 C 0 km/h
100 27-08-2007 19:52:02 19.7 C 6.28 g/m*3 19.7 C 0 km/h
Sensor: Nr:Datum:Temp:Abs-Feuchte:Windchill:Wind:
Aussen-T/F 101 27-08-2007 20:04:02 19.3 C 6.14 g/m*3 19.3 C 0 km/h
102 27-08-2007 20:16:02 19.2 C 6.43 g/m*3 19.2 C 0 km/h
103 27-08-2007 20:28:02 19 C 6.36 g/m*3 19 C 0 km/h
104 27-08-2007 20:40:02 18.8 C 6.44 g/m*3 18.8 C 0 km/h
105 27-08-2007 20:52:02 18.5 C 6.65 g/m*3 18.5 C 0 km/h
106 27-08-2007 21:04:02 18.2 C 6.84 g/m*3 18.2 C 0 km/h
107 27-08-2007 21:16:03 18.1 C 6.95 g/m*3 18.1 C 0 km/h
108 27-08-2007 21:28:03 18.1 C 6.95 g/m*3 18.1 C 0 km/h
109 27-08-2007 21:40:02 18 C 7.07 g/m*3 18 C 0 km/h
110 27-08-2007 21:52:02 17.9 C 7.33 g/m*3 17.9 C 0 km/h
111 27-08-2007 22:04:01 17.6 C 7.2 g/m*3 17.6 C 0 km/h
112 27-08-2007 22:16:02 17.6 C 7.5 g/m*3 17.6 C 0 km/h
113 27-08-2007 22:28:02 17.3 C 7.22 g/m*3 17.3 C 0 km/h
114 27-08-2007 22:40:02 17.2 C 7.32 g/m*3 17.2 C 0 km/h
115 27-08-2007 22:52:02 16.7 C 7.53 g/m*3 16.7 C 0 km/h
116 27-08-2007 23:04:02 16.2 C 7.45 g/m*3 16.2 C 0 km/h
117 27-08-2007 23:16:02 15.8 C 7.54 g/m*3 15.8 C 0 km/h
118 27-08-2007 23:28:02 15.4 C 7.75 g/m*3 15.4 C 0 km/h
119 27-08-2007 23:40:02 15 C 7.57 g/m*3 15 C 0 km/h
120 27-08-2007 23:52:02 14.6 C 7.63 g/m*3 14.6 C 0 km/h
121 28-08-2007 00:04:02 14.4 C 7.79 g/m*3 14.4 C 0 km/h
122 28-08-2007 00:16:02 14.3 C 7.86 g/m*3 14.3 C 0 km/h
123 28-08-2007 00:28:02 14.3 C 7.86 g/m*3 14.3 C 0 km/h
124 28-08-2007 00:40:02 14 C 7.84 g/m*3 14 C 0 km/h
125 28-08-2007 00:52:02 13.9 C 8.03 g/m*3 13.9 C 0 km/h
Sensor: Nr:Datum:Temp:Abs-Feuchte:Windchill:Wind:
Aussen-T/F 126 28-08-2007 01:04:02 13.8 C 8.1 g/m*3 13.8 C 0 km/h
127 28-08-2007 01:16:03 13.7 C 8.17 g/m*3 13.7 C 0 km/h
128 28-08-2007 01:28:03 13.6 C 8.12 g/m*3 13.6 C 0 km/h
129 28-08-2007 01:40:02 13.5 C 8.19 g/m*3 13.5 C 0 km/h
130 28-08-2007 01:52:03 13.4 C 8.25 g/m*3 13.4 C 0 km/h
131 28-08-2007 02:04:02 13.3 C 8.2 g/m*3 13.3 C 0 km/h
132 28-08-2007 02:16:02 13.1 C 8.22 g/m*3 13.1 C 0 km/h
133 28-08-2007 02:28:02 12.8 C 8.29 g/m*3 12.8 C 0 km/h
134 28-08-2007 02:40:02 12.5 C 8.14 g/m*3 12.5 C 0 km/h
135 28-08-2007 02:53:04 12.3 C 8.04 g/m*3 12.3 C 0 km/h
136 28-08-2007 03:05:04 12.2 C 8.09 g/m*3 12.2 C 0 km/h
137 28-08-2007 03:17:04 12.1 C 8.15 g/m*3 12.1 C 0 km/h
138 28-08-2007 03:29:04 12 C 8.21 g/m*3 12 C 0 km/h
139 28-08-2007 03:41:03 11.8 C 8.31 g/m*3 11.8 C 0 km/h
140 28-08-2007 03:53:03 11.8 C 8.31 g/m*3 11.8 C 0 km/h
141 28-08-2007 04:05:03 11.7 C 8.26 g/m*3 11.7 C 0 km/h
142 28-08-2007 04:17:03 11.6 C 8.32 g/m*3 11.6 C 0 km/h
143 28-08-2007 04:29:03 11.5 C 8.37 g/m*3 11.5 C 0 km/h
144 28-08-2007 04:41:03 11.3 C 8.36 g/m*3 11.3 C 0 km/h
145 28-08-2007 04:53:02 11.1 C 8.26 g/m*3 11.1 C 0 km/h
146 28-08-2007 05:05:02 11 C 8.31 g/m*3 11 C 0 km/h
147 28-08-2007 05:17:02 11 C 8.31 g/m*3 11 C 0 km/h
148 28-08-2007 05:29:02 11.1 C 8.46 g/m*3 11.1 C 0 km/h
149 28-08-2007 05:41:02 11.2 C 8.51 g/m*3 11.2 C 0 km/h
150 28-08-2007 05:53:03 11.2 C 8.41 g/m*3 11.2 C 0 km/h
Sensor: Nr:Datum:Temp:Abs-Feuchte:Windchill:Wind:
Aussen-T/F 151 28-08-2007 06:05:02 11.2 C 8.41 g/m*3 11.2 C 0 km/h
152 28-08-2007 06:17:02 11.2 C 8.41 g/m*3 11.2 C 0 km/h
153 28-08-2007 06:29:02 11.2 C 8.41 g/m*3 11.2 C 0 km/h
154 28-08-2007 06:41:03 11.1 C 8.36 g/m*3 11.1 C 0 km/h
155 28-08-2007 06:53:03 11 C 8.31 g/m*3 11 C 0 km/h
156 28-08-2007 07:05:02 10.9 C 8.36 g/m*3 10.9 C 0 km/h
157 28-08-2007 07:17:02 11 C 8.41 g/m*3 11 C 0 km/h
158 28-08-2007 07:29:02 11 C 8.41 g/m*3 11 C 0 km/h
159 28-08-2007 07:41:03 11.1 C 8.46 g/m*3 11.1 C 0 km/h
160 28-08-2007 07:53:02 11.5 C 8.68 g/m*3 11.5 C 0 km/h
161 28-08-2007 08:05:02 11.7 C 8.68 g/m*3 11.7 C 0 km/h
162 28-08-2007 08:17:02 11.8 C 8.74 g/m*3 11.8 C 0 km/h
163 28-08-2007 08:29:03 11.9 C 8.68 g/m*3 11.9 C 0 km/h
164 28-08-2007 08:41:02 12.2 C 8.85 g/m*3 12.2 C 0 km/h
165 28-08-2007 08:53:02 12.5 C 8.91 g/m*3 12.5 C 0 km/h
166 28-08-2007 09:05:02 12.9 C 9.02 g/m*3 12.9 C 0 km/h
167 28-08-2007 09:17:02 13.4 C 9.07 g/m*3 13.4 C 0 km/h
168 28-08-2007 09:29:02 13.9 C 9.11 g/m*3 13.9 C 0 km/h
169 28-08-2007 09:41:02 14.8 C 9.12 g/m*3 14.8 C 0 km/h
170 28-08-2007 09:53:02 15.5 C 8.86 g/m*3 15.5 C 0 km/h
171 28-08-2007 10:05:01 16.2 C 8.96 g/m*3 16.2 C 0 km/h
172 28-08-2007 10:17:02 17.2 C 8.64 g/m*3 17.2 C 0 km/h
173 28-08-2007 10:29:02 17.4 C 8.6 g/m*3 17.4 C 0 km/h
174 28-08-2007 10:41:02 17.6 C 8.55 g/m*3 17.6 C 0 km/h
175 28-08-2007 10:53:02 17.5 C 8.2 g/m*3 17.5 C 0 km/h
Sensor: Nr:Datum:Temp:Abs-Feuchte:Windchill:Wind:
Aussen-T/F 176 28-08-2007 11:05:02 17.7 C 8.3 g/m*3 17.7 C 0 km/h
177 28-08-2007 11:17:01 18.5 C 8.23 g/m*3 18.5 C 0 km/h
178 28-08-2007 11:29:01 18.8 C 7.89 g/m*3 18.8 C 0 km/h
179 28-08-2007 11:41:02 18.9 C 7.61 g/m*3 18.9 C 0 km/h
180 28-08-2007 11:53:02 19.2 C 7.42 g/m*3 19.2 C 0 km/h
181 28-08-2007 12:05:01 19.7 C 7.64 g/m*3 19.7 C 0 km/h
182 28-08-2007 12:17:01 19.4 C 7.34 g/m*3 19.4 C 0 km/h
183 28-08-2007 12:29:01 18.8 C 7.09 g/m*3 18.8 C 0 km/h
184 28-08-2007 12:41:02 19.9 C 7.56 g/m*3 19.9 C 0 km/h
185 28-08-2007 12:53:02 20.7 C 7.74 g/m*3 20.7 C 0 km/h
186 28-08-2007 13:05:02 20.8 C 7.24 g/m*3 20.8 C 0 km/h
187 28-08-2007 13:17:01 20.6 C 7.16 g/m*3 20.6 C 0 km/h
188 28-08-2007 13:29:01 21 C 6.96 g/m*3 21 C 0 km/h
189 28-08-2007 13:41:02 21 C 6.41 g/m*3 21 C 0 km/h
190 28-08-2007 13:53:02 20.8 C 6.7 g/m*3 20.8 C 0 km/h
191 28-08-2007 14:05:01 21.5 C 6.6 g/m*3 21.5 C 0 km/h
192 28-08-2007 14:17:01 22 C 6.4 g/m*3 22 C 0 km/h
193 28-08-2007 14:29:01 22.7 C 6.26 g/m*3 22.7 C 0 km/h
194 28-08-2007 14:41:02 23.3 C 5.44 g/m*3 23.3 C 0 km/h
195 28-08-2007 14:53:02 23 C 6.17 g/m*3 23 C 0 km/h
196 28-08-2007 15:05:02 23.5 C 5.92 g/m*3 23.5 C 0 km/h
197 28-08-2007 15:17:02 23.8 C 5.59 g/m*3 23.8 C 0 km/h
198 28-08-2007 15:29:02 23.1 C 5.37 g/m*3 23.1 C 0 km/h
199 28-08-2007 15:41:02 23.1 C 5.37 g/m*3 23.1 C 0 km/h
200 28-08-2007 15:53:02 23 C 5.55 g/m*3 23 C 0 km/h
Sensor: Nr:Datum:Temp:Abs-Feuchte:Windchill:Wind:
Aussen-T/F 201 28-08-2007 16:05:02 22.7 C 5.46 g/m*3 22.7 C 0 km/h
202 28-08-2007 16:17:02 21.6 C 6.45 g/m*3 21.6 C 0 km/h
203 28-08-2007 16:29:02 21.6 C 6.64 g/m*3 21.6 C 0 km/h
204 28-08-2007 16:41:02 21.5 C 6.41 g/m*3 21.5 C 0 km/h
205 28-08-2007 16:53:02 21.7 C 6.68 g/m*3 21.7 C 0 km/h
206 28-08-2007 17:05:02 22 C 6.21 g/m*3 22 C 0 km/h
207 28-08-2007 17:17:02 21.7 C 6.1 g/m*3 21.7 C 0 km/h
208 28-08-2007 17:29:03 21.8 C 6.33 g/m*3 21.8 C 0 km/h
209 28-08-2007 17:41:02 21.8 C 6.91 g/m*3 21.8 C 0 km/h
210 28-08-2007 17:53:02 22 C 6.99 g/m*3 22 C 0 km/h
211 28-08-2007 18:05:02 22.1 C 6.83 g/m*3 22.1 C 0 km/h
212 28-08-2007 18:17:02 22 C 6.4 g/m*3 22 C 0 km/h
213 28-08-2007 18:29:02 21.4 C 6.56 g/m*3 21.4 C 0 km/h
214 28-08-2007 18:41:02 20.4 C 6.72 g/m*3 20.4 C 0 km/h
215 28-08-2007 18:53:02 20.1 C 6.61 g/m*3 20.1 C 0 km/h
216 28-08-2007 19:05:02 19.5 C 6.55 g/m*3 19.5 C 0 km/h
217 28-08-2007 19:17:02 19.1 C 6.39 g/m*3 19.1 C 0 km/h
218 28-08-2007 19:29:02 18.7 C 6.4 g/m*3 18.7 C 0 km/h
219 28-08-2007 19:41:01 18.5 C 6.65 g/m*3 18.5 C 0 km/h
220 28-08-2007 19:53:02 18.5 C 6.65 g/m*3 18.5 C 0 km/h
221 28-08-2007 20:05:01 18.2 C 6.68 g/m*3 18.2 C 0 km/h
222 28-08-2007 20:17:02 17.9 C 7.18 g/m*3 17.9 C 0 km/h
223 28-08-2007 20:29:02 17.7 C 7.39 g/m*3 17.7 C 0 km/h
224 28-08-2007 20:41:02 17.3 C 7.51 g/m*3 17.3 C 0 km/h
225 28-08-2007 20:53:02 17.1 C 7.57 g/m*3 17.1 C 0 km/h
Sensor: Nr:Datum:Temp:Abs-Feuchte:Windchill:Wind:
Aussen-T/F 226 28-08-2007 21:05:02 16.8 C 7.86 g/m*3 16.8 C 0 km/h
227 28-08-2007 21:17:02 16.7 C 7.96 g/m*3 16.7 C 0 km/h
228 28-08-2007 21:29:02 16.6 C 8.05 g/m*3 16.6 C 0 km/h
229 28-08-2007 21:41:02 16.4 C 7.96 g/m*3 16.4 C 0 km/h
230 28-08-2007 21:53:02 16.1 C 7.95 g/m*3 16.1 C 0 km/h
231 28-08-2007 22:05:01 15.9 C 7.99 g/m*3 15.9 C 0 km/h
232 28-08-2007 22:17:02 15.9 C 8.13 g/m*3 15.9 C 0 km/h
233 28-08-2007 22:29:02 15.8 C 8.08 g/m*3 15.8 C 0 km/h
234 28-08-2007 22:41:02 15.7 C 8.16 g/m*3 15.7 C 0 km/h
235 28-08-2007 22:53:02 15.4 C 8.01 g/m*3 15.4 C 0 km/h
236 28-08-2007 23:05:02 15.3 C 7.97 g/m*3 15.3 C 0 km/h
237 28-08-2007 23:17:02 15.1 C 7.87 g/m*3 15.1 C 0 km/h
238 28-08-2007 23:29:02 14.8 C 7.98 g/m*3 14.8 C 0 km/h
239 28-08-2007 23:41:02 14.7 C 8.06 g/m*3 14.7 C 0 km/h
240 28-08-2007 23:53:02 14.5 C 7.96 g/m*3 14.5 C 0 km/h
241 29-08-2007 00:05:01 14.4 C 7.91 g/m*3 14.4 C 0 km/h
242 29-08-2007 00:17:02 14.3 C 7.62 g/m*3 14.3 C 0 km/h
243 29-08-2007 00:29:02 14.1 C 7.4 g/m*3 14.1 C 0 km/h
244 29-08-2007 00:41:02 13.9 C 7.55 g/m*3 13.9 C 0 km/h
245 29-08-2007 00:53:02 13.8 C 7.51 g/m*3 13.8 C 0 km/h
246 29-08-2007 01:05:02 13.7 C 7.22 g/m*3 13.7 C 0 km/h
247 29-08-2007 01:17:02 13.7 C 7.34 g/m*3 13.7 C 0 km/h
248 29-08-2007 01:29:02 13.7 C 7.34 g/m*3 13.7 C 0 km/h
249 29-08-2007 01:41:01 13.7 C 7.34 g/m*3 13.7 C 0 km/h
250 29-08-2007 01:53:03 13.6 C 7.18 g/m*3 13.6 C 0 km/h
Sensor: Nr:Datum:Temp:Abs-Feuchte:Windchill:Wind:
Aussen-T/F 251 29-08-2007 02:05:02 13.6 C 7.06 g/m*3 13.6 C 0 km/h
252 29-08-2007 02:17:02 13.5 C 7.13 g/m*3 13.5 C 0 km/h
253 29-08-2007 02:29:03 13.5 C 7.02 g/m*3 13.5 C 0 km/h
254 29-08-2007 02:41:02 13.5 C 7.02 g/m*3 13.5 C 0 km/h
255 29-08-2007 02:54:04 13.6 C 7.06 g/m*3 13.6 C 0 km/h
256 29-08-2007 03:06:04 13.6 C 7.06 g/m*3 13.6 C 0 km/h
257 29-08-2007 03:18:03 13.6 C 6.94 g/m*3 13.6 C 0 km/h
258 29-08-2007 03:30:03 13.6 C 6.94 g/m*3 13.6 C 0 km/h
259 29-08-2007 03:42:02 13.5 C 6.9 g/m*3 13.5 C 0 km/h
260 29-08-2007 03:54:02 13.4 C 6.86 g/m*3 13.4 C 0 km/h
261 29-08-2007 04:06:02 13.3 C 6.82 g/m*3 13.3 C 0 km/h
262 29-08-2007 04:18:02 13.3 C 6.82 g/m*3 13.3 C 0 km/h
263 29-08-2007 04:30:02 13.2 C 6.66 g/m*3 13.2 C 0 km/h
264 29-08-2007 04:42:02 13.1 C 6.62 g/m*3 13.1 C 0 km/h
265 29-08-2007 04:54:02 13 C 6.69 g/m*3 13 C 0 km/h
266 29-08-2007 05:06:02 13 C 6.8 g/m*3 13 C 0 km/h
267 29-08-2007 05:18:02 13 C 6.8 g/m*3 13 C 0 km/h
268 29-08-2007 05:30:02 13.1 C 6.85 g/m*3 13.1 C 0 km/h
269 29-08-2007 05:42:02 13.1 C 6.96 g/m*3 13.1 C 0 km/h
270 29-08-2007 05:54:02 12.9 C 6.88 g/m*3 12.9 C 0 km/h
271 29-08-2007 06:06:03 12.8 C 6.83 g/m*3 12.8 C 0 km/h
272 29-08-2007 06:18:02 12.7 C 6.9 g/m*3 12.7 C 0 km/h
273 29-08-2007 06:30:02 12.5 C 6.82 g/m*3 12.5 C 0 km/h
274 29-08-2007 06:42:02 12.5 C 6.93 g/m*3 12.5 C 0 km/h
275 29-08-2007 06:54:02 12.6 C 6.97 g/m*3 12.6 C 0 km/h
Sensor: Nr:Datum:Temp:Abs-Feuchte:Windchill:Wind:
Aussen-T/F 276 29-08-2007 07:06:02 12.6 C 6.97 g/m*3 12.6 C 0 km/h
277 29-08-2007 07:18:02 12.8 C 7.06 g/m*3 12.8 C 0 km/h
278 29-08-2007 07:30:02 13 C 7.14 g/m*3 13 C 0 km/h
279 29-08-2007 07:42:02 13.1 C 7.07 g/m*3 13.1 C 0 km/h
280 29-08-2007 07:54:02 13.3 C 7.39 g/m*3 13.3 C 0 km/h
281 29-08-2007 08:06:03 13.6 C 7.3 g/m*3 13.6 C 0 km/h
282 29-08-2007 08:18:02 13.8 C 7.27 g/m*3 13.8 C 0 km/h
283 29-08-2007 08:30:02 14 C 7.24 g/m*3 14 C 0 km/h
284 29-08-2007 08:42:02 14.1 C 7.28 g/m*3 14.1 C 0 km/h
285 29-08-2007 08:54:02 14.2 C 7.08 g/m*3 14.2 C 0 km/h
286 29-08-2007 09:06:03 14.6 C 7.38 g/m*3 14.6 C 0 km/h
287 29-08-2007 09:18:02 14.9 C 7.39 g/m*3 14.9 C 0 km/h
288 29-08-2007 09:30:03 14.6 C 7.01 g/m*3 14.6 C 0 km/h
289 29-08-2007 09:42:02 14.6 C 7.13 g/m*3 14.6 C 0 km/h
290 29-08-2007 09:54:02 15 C 7.05 g/m*3 15 C 0 km/h
291 29-08-2007 10:06:03 15.2 C 7.14 g/m*3 15.2 C 0 km/h
292 29-08-2007 10:18:02 15.3 C 7.18 g/m*3 15.3 C 0 km/h
293 29-08-2007 10:30:02 15.4 C 7.23 g/m*3 15.4 C 0 km/h
294 29-08-2007 10:42:02 15.9 C 7.04 g/m*3 15.9 C 0 km/h
295 29-08-2007 10:54:01 16.7 C 6.96 g/m*3 16.7 C 0 km/h
296 29-08-2007 11:06:01 17.1 C 6.84 g/m*3 17.1 C 0 km/h
297 29-08-2007 11:18:02 17.7 C 7.24 g/m*3 17.7 C 0 km/h
298 29-08-2007 11:30:02 18.1 C 7.11 g/m*3 18.1 C 0 km/h
299 29-08-2007 11:42:01 18.3 C 6.88 g/m*3 18.3 C 0 km/h
300 29-08-2007 11:54:02 18.4 C 6.76 g/m*3 18.4 C 0 km/h
Sensor: Nr:Datum:Temp:Abs-Feuchte:Windchill:Wind:
Aussen-T/F 301 29-08-2007 12:06:01 18.9 C 6.97 g/m*3 18.9 C 0 km/h
302 29-08-2007 12:18:01 19.3 C 6.63 g/m*3 19.3 C 0 km/h
303 29-08-2007 12:30:01 19.3 C 6.3 g/m*3 19.3 C 0 km/h
304 29-08-2007 12:42:02 19.9 C 6.7 g/m*3 19.9 C 0 km/h
305 29-08-2007 12:54:01 20.8 C 6.34 g/m*3 20.8 C 0 km/h
306 29-08-2007 13:06:02 21.4 C 5.81 g/m*3 21.4 C 0 km/h
307 29-08-2007 13:18:02 20.8 C 6.34 g/m*3 20.8 C 0 km/h
308 29-08-2007 13:30:02 20.4 C 5.84 g/m*3 20.4 C 0 km/h
309 29-08-2007 13:42:01 20 C 5.88 g/m*3 20 C 0 km/h
310 29-08-2007 13:54:01 21.2 C 5.74 g/m*3 21.2 C 0 km/h
311 29-08-2007 14:06:02 22.1 C 5.27 g/m*3 22.1 C 0 km/h
312 29-08-2007 14:18:02 22.8 C 5.89 g/m*3 22.8 C 0 km/h
313 29-08-2007 14:30:03 23 C 5.14 g/m*3 23 C 0 km/h
314 29-08-2007 14:42:01 23.3 C 5.23 g/m*3 23.3 C 0 km/h
315 29-08-2007 14:54:02 23.8 C 5.16 g/m*3 23.8 C 0 km/h
316 29-08-2007 15:06:02 22.6 C 5.22 g/m*3 22.6 C 0 km/h
317 29-08-2007 15:18:02 23.7 C 5.13 g/m*3 23.7 C 0 km/h
318 29-08-2007 15:30:02 22.7 C 4.65 g/m*3 22.7 C 0 km/h
319 29-08-2007 15:42:02 23.5 C 4.44 g/m*3 23.5 C 0 km/h
320 29-08-2007 15:54:02 22.9 C 4.5 g/m*3 22.9 C 0 km/h
321 29-08-2007 16:06:02 23.5 C 4.23 g/m*3 23.5 C 0 km/h
322 29-08-2007 16:18:02 24.3 C 4.43 g/m*3 24.3 C 0 km/h
323 29-08-2007 16:30:02 24.3 C 4.43 g/m*3 24.3 C 0 km/h
324 29-08-2007 16:42:02 24.4 C 4.45 g/m*3 24.4 C 0 km/h
325 29-08-2007 16:54:02 25 C 4.6 g/m*3 25 C 0 km/h
Sensor: Nr:Datum:Temp:Abs-Feuchte:Windchill:Wind:
Aussen-T/F 326 29-08-2007 17:06:03 25.2 C 4.66 g/m*3 25.2 C 0 km/h
327 29-08-2007 17:18:02 25.1 C 4.63 g/m*3 25.1 C 0 km/h
328 29-08-2007 17:30:02 23.9 C 4.33 g/m*3 23.9 C 0 km/h
329 29-08-2007 17:42:02 24.5 C 4.48 g/m*3 24.5 C 0 km/h
330 29-08-2007 17:54:02 24.6 C 4.5 g/m*3 24.6 C 0 km/h
331 29-08-2007 18:06:03 24.6 C 4.5 g/m*3 24.6 C 0 km/h
332 29-08-2007 18:18:03 24.1 C 4.38 g/m*3 24.1 C 0 km/h
333 29-08-2007 18:30:03 23.4 C 4.42 g/m*3 23.4 C 0 km/h
334 29-08-2007 18:42:02 22.7 C 4.85 g/m*3 22.7 C 0 km/h
335 29-08-2007 18:54:02 23 C 5.14 g/m*3 23 C 0 km/h
336 29-08-2007 19:06:01 23.5 C 5.29 g/m*3 23.5 C 0 km/h
337 29-08-2007 19:18:02 22.7 C 5.25 g/m*3 22.7 C 0 km/h
338 29-08-2007 19:30:02 21.8 C 5.18 g/m*3 21.8 C 0 km/h
339 29-08-2007 19:42:02 20.9 C 5.46 g/m*3 20.9 C 0 km/h
340 29-08-2007 19:54:02 19.9 C 5.67 g/m*3 19.9 C 0 km/h
341 29-08-2007 20:06:02 19.6 C 5.91 g/m*3 19.6 C 0 km/h
342 29-08-2007 20:18:03 19.1 C 5.9 g/m*3 19.1 C 0 km/h
343 29-08-2007 20:30:03 18.9 C 5.99 g/m*3 18.9 C 0 km/h
344 29-08-2007 20:42:02 18.7 C 5.92 g/m*3 18.7 C 0 km/h
345 29-08-2007 20:54:02 18.3 C 5.79 g/m*3 18.3 C 0 km/h
346 29-08-2007 21:06:02 18 C 5.68 g/m*3 18 C 0 km/h
347 29-08-2007 21:18:01 17.7 C 5.88 g/m*3 17.7 C 0 km/h
348 29-08-2007 21:30:01 17.5 C 5.96 g/m*3 17.5 C 0 km/h
349 29-08-2007 21:42:02 17 C 6.22 g/m*3 17 C 0 km/h
350 29-08-2007 21:54:02 16.3 C 6.24 g/m*3 16.3 C 0 km/h
Sensor: Nr:Datum:Temp:Abs-Feuchte:Windchill:Wind:
Aussen-T/F 351 29-08-2007 22:06:01 15.7 C 6.15 g/m*3 15.7 C 0 km/h
352 29-08-2007 22:18:01 15.4 C 6.31 g/m*3 15.4 C 0 km/h
353 29-08-2007 22:30:01 15 C 6.28 g/m*3 15 C 0 km/h
354 29-08-2007 22:42:02 14.7 C 6.3 g/m*3 14.7 C 0 km/h
355 29-08-2007 22:54:03 14.4 C 6.3 g/m*3 14.4 C 0 km/h
356 29-08-2007 23:06:02 14.1 C 6.31 g/m*3 14.1 C 0 km/h
357 29-08-2007 23:18:02 13.9 C 6.47 g/m*3 13.9 C 0 km/h
358 29-08-2007 23:30:02 13.9 C 6.47 g/m*3 13.9 C 0 km/h
359 29-08-2007 23:42:03 13.8 C 6.43 g/m*3 13.8 C 0 km/h
360 29-08-2007 23:54:02 13.7 C 6.39 g/m*3 13.7 C 0 km/h

Legende:
   Min
   Max


Maximal/Minimal-Werte vom 27.08.2007 - 29.08.2007

Sensor Min Max Avg
Temp
(Aussen-T/F)
10.9 °C
28-08-2007  07:05:02
25.2 °C
29-08-2007  17:06:03
17.75 °C
Abs-Feuchte
(Aussen-T/F)
4.23 g/m*3
29-08-2007  16:06:02
12.1 g/m*3
27-08-2007  00:27:03
7.5 g/m*3
Windchill
(Aussen-T/F)
10.9 C
28-08-2007  07:05:02
25.2 C
29-08-2007  17:06:03
17.7 C

Die Daten stammen von einer Davis Vantage Pro 2 Wetter-Station und werden unter Linux mit der Software wview2wettercgi und aufbereitet. Alle Angaben erfolgen ohne Gewähr für ihre Vollständigkeit oder Richtigkeit.
Kontakt: Rainer Krienke krienke@uni-koblenz.de . Meine Webseiten an der Uni Koblenz oder privat.
Version: $Revision: 0.78 $